createdAt,value
2023-04-02T00:01:18.005Z,5.40
2023-04-02T00:04:08.327Z,5.42
2023-04-02T00:06:43.971Z,5.41
2023-04-02T00:09:40.208Z,5.40
2023-04-02T00:12:16.318Z,5.42
2023-04-02T00:14:53.207Z,5.42
2023-04-02T00:17:25.768Z,5.38
2023-04-02T00:20:01.310Z,5.40
2023-04-02T00:22:33.749Z,5.30
2023-04-02T00:25:13.123Z,5.22
2023-04-02T00:27:46.002Z,5.08
2023-04-02T00:30:18.997Z,5.22
2023-04-02T00:32:52.035Z,5.26
2023-04-02T00:35:27.959Z,5.23
2023-04-02T00:38:01.678Z,5.30
2023-04-02T00:40:34.080Z,5.34
2023-04-02T00:43:08.047Z,5.33
2023-04-02T00:45:41.211Z,5.29
2023-04-02T00:48:24.146Z,5.18
2023-04-02T00:50:57.427Z,5.34
2023-04-02T00:53:31.273Z,5.42
2023-04-02T00:56:12.591Z,5.42
2023-04-02T00:58:50.723Z,5.48
2023-04-02T01:01:27.598Z,5.50
2023-04-02T01:04:02.865Z,5.56
2023-04-02T01:06:37.662Z,5.48
2023-04-02T01:09:21.106Z,5.47
2023-04-02T01:12:09.778Z,5.35
2023-04-02T01:14:50.623Z,5.41
2023-04-02T01:17:57.729Z,5.42
2023-04-02T01:20:58.413Z,5.44
2023-04-02T01:23:38.313Z,5.39
2023-04-02T01:26:18.605Z,5.37
2023-04-02T01:29:01.566Z,5.30
2023-04-02T01:31:34.716Z,5.29
2023-04-02T01:34:09.639Z,5.31
2023-04-02T01:36:52.883Z,5.12
2023-04-02T01:39:36.346Z,5.17
2023-04-02T01:42:16.821Z,5.19
2023-04-02T01:44:51.465Z,5.15
2023-04-02T01:47:26.592Z,4.94
2023-04-02T01:50:02.158Z,4.94
2023-04-02T01:52:39.862Z,4.99
2023-04-02T01:55:15.145Z,5.06
2023-04-02T01:57:51.320Z,5.09
2023-04-02T02:00:25.499Z,5.12
2023-04-02T02:03:02.108Z,4.95
2023-04-02T02:05:35.482Z,5.01
2023-04-02T02:08:21.712Z,5.05
2023-04-02T02:10:54.952Z,5.06
2023-04-02T02:13:27.465Z,5.02
2023-04-02T02:16:02.647Z,5.04
2023-04-02T02:18:35.064Z,5.01
2023-04-02T02:21:09.946Z,5.00
2023-04-02T02:23:42.662Z,4.94
2023-04-02T02:26:15.579Z,4.98
2023-04-02T02:28:52.121Z,5.03
2023-04-02T02:31:30.200Z,5.00
2023-04-02T02:34:08.422Z,4.99
2023-04-02T02:36:51.113Z,4.97
2023-04-02T02:39:27.698Z,5.00
2023-04-02T02:42:05.639Z,4.99
2023-04-02T02:44:44.159Z,5.00
2023-04-02T02:47:23.366Z,4.92
2023-04-02T02:49:59.177Z,4.86
2023-04-02T02:52:36.197Z,4.87
2023-04-02T02:55:18.236Z,4.66
2023-04-02T02:58:22.657Z,4.77
2023-04-02T03:01:09.500Z,4.80
2023-04-02T03:03:46.665Z,4.83
2023-04-02T03:06:19.976Z,4.84
2023-04-02T03:09:03.743Z,4.79
2023-04-02T03:11:43.789Z,4.83
2023-04-02T03:14:27.737Z,4.86
2023-04-02T03:17:09.671Z,4.86
2023-04-02T03:19:47.640Z,4.79
2023-04-02T03:22:25.649Z,4.81
2023-04-02T03:25:01.808Z,4.66
2023-04-02T03:27:40.093Z,4.81
2023-04-02T03:30:36.844Z,4.85
2023-04-02T03:33:14.924Z,4.85
2023-04-02T03:35:57.540Z,4.87
2023-04-02T03:38:35.002Z,4.71
2023-04-02T03:41:17.190Z,4.71
2023-04-02T03:43:54.642Z,4.75
2023-04-02T03:46:33.313Z,4.72
2023-04-02T03:49:12.306Z,4.69
2023-04-02T03:51:53.081Z,4.74
2023-04-02T03:54:27.879Z,4.72
2023-04-02T03:57:01.325Z,4.73
2023-04-02T03:59:42.435Z,4.65
2023-04-02T04:02:35.051Z,4.57
2023-04-02T04:05:20.881Z,4.61
2023-04-02T04:07:59.725Z,4.62
2023-04-02T04:10:34.002Z,4.55
2023-04-02T04:13:11.483Z,4.48
2023-04-02T04:15:52.042Z,4.46
2023-04-02T04:18:37.159Z,4.30
2023-04-02T04:21:30.265Z,4.31
2023-04-02T04:24:19.596Z,4.10
2023-04-02T04:26:57.713Z,4.18
2023-04-02T04:29:44.875Z,4.19
2023-04-02T04:32:31.668Z,4.13
2023-04-02T04:35:16.795Z,4.08
2023-04-02T04:37:57.975Z,3.99
2023-04-02T04:40:34.818Z,4.00
2023-04-02T04:43:15.656Z,3.83
2023-04-02T04:45:54.638Z,3.87
2023-04-02T04:48:36.004Z,3.91
2023-04-02T04:51:16.840Z,3.88
2023-04-02T04:53:50.451Z,3.85
2023-04-02T04:56:29.156Z,3.70
2023-04-02T04:59:18.302Z,3.64
2023-04-02T05:01:55.418Z,3.72
2023-04-02T05:04:34.175Z,3.73
2023-04-02T05:07:10.633Z,3.77
2023-04-02T05:09:51.549Z,3.75
2023-04-02T05:12:32.483Z,3.82
2023-04-02T05:15:14.581Z,3.73
2023-04-02T05:17:54.082Z,3.80
2023-04-02T05:20:32.443Z,3.86
2023-04-02T05:23:15.036Z,3.97
2023-04-02T05:26:02.057Z,4.02
2023-04-02T05:28:42.327Z,4.11
2023-04-02T05:31:20.285Z,4.15
2023-04-02T05:33:54.595Z,4.22
2023-04-02T05:36:29.764Z,4.31
2023-04-02T05:39:08.807Z,4.40
2023-04-02T05:41:48.057Z,4.57
2023-04-02T05:44:45.054Z,4.77
2023-04-02T05:47:27.153Z,4.90
2023-04-02T05:50:21.597Z,5.05
2023-04-02T05:52:58.586Z,5.21
2023-04-02T05:55:37.866Z,5.40
2023-04-02T05:58:35.591Z,5.62
2023-04-02T06:01:29.066Z,5.77
2023-04-02T06:04:14.846Z,6.00
2023-04-02T06:06:52.921Z,6.23
2023-04-02T06:09:34.590Z,6.46
2023-04-02T06:12:18.074Z,6.72
2023-04-02T06:14:50.711Z,6.89
2023-04-02T06:17:24.018Z,7.05
2023-04-02T06:19:58.593Z,7.28
2023-04-02T06:22:36.537Z,7.45
2023-04-02T06:25:15.492Z,7.49
2023-04-02T06:27:50.123Z,7.57
2023-04-02T06:30:30.603Z,7.69
2023-04-02T06:33:04.947Z,7.82
2023-04-02T06:35:42.496Z,8.01
2023-04-02T06:38:20.741Z,8.12
2023-04-02T06:40:58.743Z,8.27
2023-04-02T06:44:09.132Z,8.43
2023-04-02T06:46:57.480Z,8.57
2023-04-02T06:49:36.603Z,8.75
2023-04-02T06:52:18.029Z,8.79
2023-04-02T06:54:50.591Z,8.88
2023-04-02T06:57:23.027Z,9.03
2023-04-02T06:59:56.545Z,9.16
2023-04-02T07:02:35.071Z,9.21
2023-04-02T07:05:10.884Z,9.10
2023-04-02T07:07:47.738Z,9.30
2023-04-02T07:10:20.717Z,9.37
2023-04-02T07:12:53.881Z,9.45
2023-04-02T07:15:27.952Z,9.50
2023-04-02T07:18:00.895Z,9.45
2023-04-02T07:20:36.851Z,9.69
2023-04-02T07:23:14.300Z,9.68
2023-04-02T07:25:47.738Z,9.85
2023-04-02T07:28:22.384Z,10.03
2023-04-02T07:30:55.885Z,9.97
2023-04-02T07:33:30.383Z,10.13
2023-04-02T07:36:03.601Z,10.09
2023-04-02T07:38:35.935Z,10.13
2023-04-02T07:41:08.776Z,10.32
2023-04-02T07:43:42.143Z,10.33
2023-04-02T07:46:16.965Z,10.51
2023-04-02T07:48:49.336Z,10.41
2023-04-02T07:51:23.847Z,10.53
2023-04-02T07:53:56.412Z,10.81
2023-04-02T07:56:28.947Z,11.23
2023-04-02T07:59:01.529Z,10.99
2023-04-02T08:01:34.815Z,11.28
2023-04-02T08:04:17.267Z,11.62
2023-04-02T08:06:52.196Z,11.59
2023-04-02T08:09:24.556Z,11.54
2023-04-02T08:11:56.847Z,11.78
2023-04-02T08:14:29.146Z,11.39
2023-04-02T08:17:01.534Z,11.15
2023-04-02T08:19:39.102Z,11.20
2023-04-02T08:22:21.021Z,11.77
2023-04-02T08:24:53.296Z,12.26
2023-04-02T08:27:25.934Z,12.54
2023-04-02T08:29:58.437Z,12.65
2023-04-02T08:32:30.723Z,12.75
2023-04-02T08:35:03.548Z,12.53
2023-04-02T08:37:36.771Z,12.51
2023-04-02T08:40:21.394Z,12.77
2023-04-02T08:43:09.443Z,12.90
2023-04-02T08:45:55.469Z,13.02
2023-04-02T08:48:30.611Z,12.71
2023-04-02T08:51:05.294Z,12.56
2023-04-02T08:53:41.191Z,12.73
2023-04-02T08:56:19.431Z,13.02
2023-04-02T08:58:55.953Z,12.89
2023-04-02T09:01:37.209Z,13.12
2023-04-02T09:04:15.723Z,13.33
2023-04-02T09:06:51.757Z,13.60
2023-04-02T09:09:25.245Z,13.71
2023-04-02T09:12:02.195Z,13.65
2023-04-02T09:14:42.048Z,13.72
2023-04-02T09:17:17.920Z,13.84
2023-04-02T09:19:55.767Z,13.35
2023-04-02T09:22:32.080Z,13.75
2023-04-02T09:25:12.022Z,13.34
2023-04-02T09:27:47.375Z,13.81
2023-04-02T09:30:29.887Z,14.01
2023-04-02T09:33:06.720Z,14.00
2023-04-02T09:35:55.645Z,14.01
2023-04-02T09:38:30.904Z,13.89
2023-04-02T09:41:05.859Z,13.76
2023-04-02T09:43:38.766Z,13.79
2023-04-02T09:46:18.268Z,14.33
2023-04-02T09:48:54.629Z,14.26
2023-04-02T09:51:30.944Z,14.55
2023-04-02T09:54:13.301Z,14.94
2023-04-02T09:57:02.006Z,14.61
2023-04-02T09:59:34.341Z,14.92
2023-04-02T10:02:24.620Z,15.05
2023-04-02T10:05:03.482Z,15.12
2023-04-02T10:07:38.330Z,15.11
2023-04-02T10:10:20.924Z,15.01
2023-04-02T10:12:59.482Z,15.16
2023-04-02T10:15:35.185Z,14.95
2023-04-02T10:18:16.281Z,14.94
2023-04-02T10:20:52.344Z,14.61
2023-04-02T10:23:27.973Z,14.67
2023-04-02T10:26:20.092Z,14.01
2023-04-02T10:29:11.935Z,14.33
2023-04-02T10:31:55.972Z,14.30
2023-04-02T10:34:35.882Z,14.87
2023-04-02T10:37:27.476Z,15.13
2023-04-02T10:40:06.913Z,15.62
2023-04-02T10:42:52.421Z,15.21
2023-04-02T10:45:38.659Z,15.50
2023-04-02T10:48:19.883Z,15.41
2023-04-02T10:51:00.934Z,15.23
2023-04-02T10:53:41.732Z,15.35
2023-04-02T10:56:14.866Z,15.01
2023-04-02T10:58:55.071Z,14.40
2023-04-02T11:01:30.973Z,14.76
2023-04-02T11:04:08.348Z,14.89
2023-04-02T11:06:46.060Z,15.16
2023-04-02T11:09:25.012Z,15.64
2023-04-02T11:12:00.956Z,15.70
2023-04-02T11:14:33.458Z,15.42
2023-04-02T11:17:13.824Z,15.15
2023-04-02T11:19:46.207Z,15.38
2023-04-02T11:22:21.196Z,15.40
2023-04-02T11:24:56.590Z,15.07
2023-04-02T11:27:31.170Z,14.76
2023-04-02T11:30:07.432Z,15.02
2023-04-02T11:32:42.187Z,14.60
2023-04-02T11:35:35.064Z,14.58
2023-04-02T11:38:48.683Z,14.28
2023-04-02T11:42:01.786Z,14.12
2023-04-02T11:44:34.173Z,14.69
2023-04-02T11:47:15.784Z,14.34
2023-04-02T11:50:05.278Z,14.87
2023-04-02T11:52:51.871Z,14.34
2023-04-02T11:55:27.336Z,14.55
2023-04-02T11:58:30.185Z,14.34
2023-04-02T12:01:35.028Z,14.77
2023-04-02T12:04:35.988Z,15.01
2023-04-02T12:07:25.938Z,15.49
2023-04-02T12:10:01.294Z,14.97
2023-04-02T12:12:37.475Z,14.79
2023-04-02T12:15:32.430Z,15.56
2023-04-02T12:18:12.297Z,15.71
2023-04-02T12:20:50.127Z,15.59
2023-04-02T12:23:28.516Z,16.10
2023-04-02T12:26:05.724Z,16.36
2023-04-02T12:28:38.247Z,16.45
2023-04-02T12:31:14.285Z,16.10
2023-04-02T12:33:51.165Z,16.40
2023-04-02T12:36:23.615Z,16.56
2023-04-02T12:38:57.952Z,16.75
2023-04-02T12:41:32.534Z,16.80
2023-04-02T12:44:10.840Z,16.57
2023-04-02T12:46:44.532Z,16.58
2023-04-02T12:49:28.000Z,16.26
2023-04-02T12:52:02.952Z,16.35
2023-04-02T12:54:43.715Z,16.65
2023-04-02T12:57:37.828Z,16.99
2023-04-02T13:00:33.477Z,17.34
2023-04-02T13:03:17.829Z,17.58
2023-04-02T13:05:53.921Z,17.47
2023-04-02T13:08:29.410Z,17.72
2023-04-02T13:11:04.486Z,17.65
2023-04-02T13:13:38.620Z,17.14
2023-04-02T13:16:27.126Z,17.41
2023-04-02T13:19:12.242Z,17.31
2023-04-02T13:21:45.335Z,17.38
2023-04-02T13:24:18.480Z,17.04
2023-04-02T13:26:54.481Z,16.97
2023-04-02T13:29:28.867Z,16.91
2023-04-02T13:32:03.298Z,16.78
2023-04-02T13:34:35.548Z,16.87
2023-04-02T13:37:10.703Z,16.75
2023-04-02T13:39:43.078Z,16.57
2023-04-02T13:42:17.695Z,16.59
2023-04-02T13:44:50.505Z,16.21
2023-04-02T13:47:22.836Z,16.78
2023-04-02T13:49:55.133Z,17.12
2023-04-02T13:52:28.100Z,17.35
2023-04-02T13:55:00.918Z,17.41
2023-04-02T13:57:34.176Z,16.94
2023-04-02T14:00:07.850Z,16.65
2023-04-02T14:02:44.253Z,16.25
2023-04-02T14:05:31.738Z,15.99
2023-04-02T14:08:08.913Z,16.42
2023-04-02T14:10:57.358Z,16.86
2023-04-02T14:13:48.551Z,17.20
2023-04-02T14:16:41.710Z,17.44
2023-04-02T14:19:28.242Z,17.66
2023-04-02T14:22:11.913Z,17.59
2023-04-02T14:24:54.375Z,17.67
2023-04-02T14:27:40.503Z,18.00
2023-04-02T14:30:21.749Z,18.16
2023-04-02T14:33:00.941Z,18.10
2023-04-02T14:35:36.746Z,18.14
2023-04-02T14:38:17.821Z,17.93
2023-04-02T14:40:54.335Z,17.78
2023-04-02T14:43:32.314Z,17.79
2023-04-02T14:46:07.006Z,17.75
2023-04-02T14:48:46.874Z,17.99
2023-04-02T14:51:26.720Z,18.01
2023-04-02T14:54:06.824Z,18.17
2023-04-02T14:56:45.165Z,18.07
2023-04-02T14:59:27.486Z,18.11
2023-04-02T15:02:04.188Z,18.14
2023-04-02T15:04:43.016Z,17.80
2023-04-02T15:07:22.010Z,17.44
2023-04-02T15:10:10.893Z,17.37
2023-04-02T15:12:46.242Z,17.14
2023-04-02T15:15:39.036Z,17.10
2023-04-02T15:18:15.818Z,17.04
2023-04-02T15:21:05.252Z,16.66
2023-04-02T15:23:50.319Z,16.35
2023-04-02T15:26:28.723Z,15.82
2023-04-02T15:29:15.887Z,15.59
2023-04-02T15:32:01.682Z,15.29
2023-04-02T15:34:44.613Z,15.19
2023-04-02T15:37:23.263Z,15.04
2023-04-02T15:40:22.598Z,14.68
2023-04-02T15:43:04.375Z,14.86
2023-04-02T15:45:48.916Z,14.90
2023-04-02T15:48:44.731Z,14.65
2023-04-02T15:51:33.592Z,14.54
2023-04-02T15:54:22.422Z,14.54
2023-04-02T15:57:05.247Z,14.48
2023-04-02T15:59:54.883Z,14.44
2023-04-02T16:02:53.454Z,14.31
2023-04-02T16:05:36.174Z,14.31
2023-04-02T16:08:53.651Z,14.29
2023-04-02T16:11:26.642Z,14.25
2023-04-02T16:14:12.966Z,14.15
2023-04-02T16:16:47.642Z,14.08
2023-04-02T16:19:28.511Z,14.08
2023-04-02T16:22:05.498Z,14.01
2023-04-02T16:24:44.624Z,13.95
2023-04-02T16:27:25.916Z,13.83
2023-04-02T16:30:22.054Z,13.83
2023-04-02T16:33:09.975Z,13.67
2023-04-02T16:35:50.856Z,13.64
2023-04-02T16:38:36.568Z,13.57
2023-04-02T16:41:18.846Z,13.52
2023-04-02T16:44:02.741Z,13.43
2023-04-02T16:46:58.118Z,13.37
2023-04-02T16:49:40.106Z,12.99
2023-04-02T16:52:28.774Z,13.07
2023-04-02T16:55:22.666Z,12.89
2023-04-02T16:58:06.908Z,12.79
2023-04-02T17:00:48.267Z,12.66
2023-04-02T17:03:47.339Z,12.61
2023-04-02T17:06:35.112Z,12.55
2023-04-02T17:09:15.791Z,12.37
2023-04-02T17:11:50.903Z,12.22
2023-04-02T17:14:34.434Z,12.35
2023-04-02T17:17:10.883Z,12.26
2023-04-02T17:19:48.501Z,12.12
2023-04-02T17:22:31.322Z,12.00
2023-04-02T17:25:07.121Z,11.94
2023-04-02T17:27:43.046Z,11.89
2023-04-02T17:30:18.944Z,11.79
2023-04-02T17:32:51.318Z,11.67
2023-04-02T17:35:32.928Z,11.59
2023-04-02T17:38:13.217Z,11.39
2023-04-02T17:40:53.113Z,11.25
2023-04-02T17:43:36.710Z,11.22
2023-04-02T17:46:20.859Z,11.08
2023-04-02T17:48:57.324Z,11.03
2023-04-02T17:51:39.182Z,11.03
2023-04-02T17:54:24.694Z,11.06
2023-04-02T17:57:16.263Z,10.77
2023-04-02T18:00:21.091Z,10.84
2023-04-02T18:03:15.857Z,10.78
2023-04-02T18:06:13.908Z,10.74
2023-04-02T18:08:51.705Z,10.76
2023-04-02T18:11:36.635Z,10.42
2023-04-02T18:14:27.445Z,10.28
2023-04-02T18:17:13.793Z,10.24
2023-04-02T18:19:56.344Z,10.21
2023-04-02T18:22:37.727Z,10.20
2023-04-02T18:25:25.334Z,10.11
2023-04-02T18:28:15.644Z,10.12
2023-04-02T18:31:01.394Z,10.00
2023-04-02T18:33:56.163Z,9.79
2023-04-02T18:36:39.902Z,9.74
2023-04-02T18:39:20.119Z,9.73
2023-04-02T18:42:02.689Z,9.65
2023-04-02T18:44:48.824Z,9.68
2023-04-02T18:47:30.076Z,9.63
2023-04-02T18:50:15.085Z,9.49
2023-04-02T18:53:12.628Z,9.39
2023-04-02T18:55:48.095Z,9.52
2023-04-02T18:58:26.681Z,9.39
2023-04-02T19:01:01.013Z,9.34
2023-04-02T19:03:40.752Z,9.35
2023-04-02T19:06:26.537Z,9.13
2023-04-02T19:09:02.529Z,9.16
2023-04-02T19:11:35.354Z,9.17
2023-04-02T19:14:12.268Z,9.23
2023-04-02T19:16:59.743Z,9.31
2023-04-02T19:19:37.563Z,9.29
2023-04-02T19:22:19.725Z,9.26
2023-04-02T19:25:29.606Z,9.31
2023-04-02T19:28:11.722Z,9.24
2023-04-02T19:31:03.189Z,9.20
2023-04-02T19:33:44.508Z,9.09
2023-04-02T19:36:41.638Z,9.10
2023-04-02T19:39:46.356Z,9.00
2023-04-02T19:42:45.809Z,8.90
2023-04-02T19:45:26.289Z,8.92
2023-04-02T19:48:01.392Z,8.88
2023-04-02T19:50:56.664Z,8.75
2023-04-02T19:53:29.002Z,8.70
2023-04-02T19:56:01.508Z,8.63
2023-04-02T19:58:35.871Z,8.54
2023-04-02T20:01:08.223Z,8.43
2023-04-02T20:03:43.507Z,8.35
2023-04-02T20:06:16.385Z,8.11
2023-04-02T20:08:48.754Z,8.13
2023-04-02T20:11:22.022Z,8.13
2023-04-02T20:13:55.068Z,8.16
2023-04-02T20:16:27.517Z,8.08
2023-04-02T20:19:00.122Z,8.07
2023-04-02T20:21:37.341Z,8.03
2023-04-02T20:24:09.773Z,8.10
2023-04-02T20:26:42.090Z,7.96
2023-04-02T20:29:15.144Z,7.97
2023-04-02T20:31:47.481Z,7.90
2023-04-02T20:34:20.136Z,7.86
2023-04-02T20:36:55.344Z,7.84
2023-04-02T20:39:46.022Z,7.81
2023-04-02T20:42:37.137Z,7.67
2023-04-02T20:45:10.863Z,7.39
2023-04-02T20:47:43.159Z,7.50
2023-04-02T20:50:15.904Z,7.48
2023-04-02T20:52:48.526Z,7.44
2023-04-02T20:55:21.509Z,7.39
2023-04-02T20:57:53.863Z,7.41
2023-04-02T21:00:26.836Z,7.34
2023-04-02T21:02:59.344Z,7.35
2023-04-02T21:05:31.718Z,7.30
2023-04-02T21:08:04.506Z,7.21
2023-04-02T21:10:36.963Z,7.25
2023-04-02T21:13:09.520Z,7.18
2023-04-02T21:15:45.515Z,7.19
2023-04-02T21:18:17.806Z,7.18
2023-04-02T21:20:56.665Z,7.09
2023-04-02T21:23:29.261Z,7.01
2023-04-02T21:26:05.391Z,6.93
2023-04-02T21:28:37.757Z,6.88
2023-04-02T21:31:12.397Z,6.79
2023-04-02T21:33:46.751Z,6.82
2023-04-02T21:36:21.329Z,6.83
2023-04-02T21:38:56.350Z,6.80
2023-04-02T21:41:30.681Z,6.80
2023-04-02T21:44:04.994Z,6.80
2023-04-02T21:46:39.532Z,6.71
2023-04-02T21:49:13.160Z,6.69
2023-04-02T21:51:46.412Z,6.64
2023-04-02T21:54:18.942Z,6.61
2023-04-02T21:56:51.854Z,6.56
2023-04-02T21:59:24.294Z,6.50
2023-04-02T22:01:57.273Z,6.34
2023-04-02T22:04:29.927Z,6.22
2023-04-02T22:07:02.302Z,6.20
2023-04-02T22:09:34.901Z,6.12
2023-04-02T22:12:07.441Z,6.13
2023-04-02T22:14:39.725Z,6.14
2023-04-02T22:17:12.794Z,6.14
2023-04-02T22:19:45.083Z,6.13
2023-04-02T22:22:17.358Z,6.08
2023-04-02T22:24:49.630Z,6.01
2023-04-02T22:27:21.964Z,5.96
2023-04-02T22:29:54.585Z,5.86
2023-04-02T22:32:27.590Z,5.90
2023-04-02T22:34:59.868Z,5.94
2023-04-02T22:37:33.216Z,5.83
2023-04-02T22:40:06.561Z,5.71
2023-04-02T22:42:57.733Z,5.71
2023-04-02T22:45:30.028Z,5.70
2023-04-02T22:48:03.014Z,5.61
2023-04-02T22:50:35.609Z,5.57
2023-04-02T22:53:10.083Z,5.56
2023-04-02T22:55:42.457Z,5.50
2023-04-02T22:58:33.506Z,5.55
2023-04-02T23:01:26.357Z,5.56
2023-04-02T23:04:18.014Z,5.46
2023-04-02T23:06:50.834Z,5.48
2023-04-02T23:09:23.172Z,5.45
2023-04-02T23:11:55.650Z,5.39
2023-04-02T23:14:43.178Z,5.31
2023-04-02T23:17:15.548Z,5.29
2023-04-02T23:20:08.261Z,5.24
2023-04-02T23:22:59.223Z,5.24
2023-04-02T23:25:49.800Z,5.33
2023-04-02T23:28:22.604Z,5.29
2023-04-02T23:30:55.290Z,5.29
2023-04-02T23:33:27.599Z,5.21
2023-04-02T23:36:05.570Z,5.20
2023-04-02T23:38:37.950Z,5.14
2023-04-02T23:41:13.696Z,4.95
2023-04-02T23:43:46.006Z,4.99
2023-04-02T23:46:18.738Z,5.03
2023-04-02T23:48:51.455Z,4.96
2023-04-02T23:51:25.320Z,4.91
2023-04-02T23:53:57.838Z,4.91
2023-04-02T23:56:30.130Z,4.89
2023-04-02T23:59:02.551Z,4.90
